Time;durP1;ratioP1;P1;durP2;ratioP2;P2;SDS_P1;SDS_P2;PMS_P1;PMS_P2;Temp;Humidity;BMP_temperature;BMP_pressure;BME280_temperature;BME280_humidity;BME280_pressure;Samples;Min_cycle;Max_cycle;Signal;HPM_P1;HPM_P2
2023/03/07 00:00:25;;;;;;;5.80;5.50;;;4.70;98.20;;;;;;5069130;28;20454;-75
2023/03/07 00:02:55;;;;;;;1.60;1.40;;;4.70;98.20;;;;;;5058855;28;20974;-75
2023/03/07 00:05:22;;;;;;;1.60;1.40;;;4.70;98.20;;;;;;5068779;28;20619;-74
2023/03/07 00:07:48;;;;;;;1.50;1.20;;;4.70;98.20;;;;;;5058109;28;20485;-74
2023/03/07 00:10:16;;;;;;;1.60;1.40;;;4.70;98.20;;;;;;5068545;28;20481;-73
2023/03/07 00:12:44;;;;;;;1.60;1.30;;;4.70;98.20;;;;;;5059197;28;20474;-74
2023/03/07 00:15:13;;;;;;;1.60;1.30;;;4.70;98.20;;;;;;5064918;28;20899;-74
2023/03/07 00:17:40;;;;;;;1.60;1.47;;;4.60;98.20;;;;;;5058341;28;20532;-74
2023/03/07 00:20:10;;;;;;;1.60;1.30;;;4.70;98.20;;;;;;5068527;28;20938;-74
2023/03/07 00:22:40;;;;;;;1.57;1.43;;;4.60;98.20;;;;;;5058945;28;21013;-74
2023/03/07 00:25:08;;;;;;;1.60;1.40;;;4.60;98.20;;;;;;5071528;28;20497;-74
2023/03/07 00:27:35;;;;;;;1.60;1.50;;;4.60;98.20;;;;;;5058304;28;20492;-73
2023/03/07 00:30:04;;;;;;;1.60;1.30;;;4.60;98.20;;;;;;5068153;28;20485;-74
2023/03/07 00:32:32;;;;;;;1.57;1.33;;;4.60;98.20;;;;;;5058609;28;20477;-73
2023/03/07 00:35:00;;;;;;;1.53;1.30;;;4.60;98.20;;;;;;5068198;28;20477;-74
2023/03/07 00:37:27;;;;;;;1.60;1.30;;;4.60;98.20;;;;;;5058133;28;20478;-74
2023/03/07 00:39:53;;;;;;;1.60;1.50;;;4.60;98.20;;;;;;5066249;28;20458;-74
2023/03/07 00:42:20;;;;;;;1.53;1.30;;;4.60;98.20;;;;;;5059714;28;20496;-74
2023/03/07 00:44:47;;;;;;;1.60;1.40;;;4.60;98.20;;;;;;5066419;28;20782;-74
2023/03/07 00:47:15;;;;;;;1.60;1.30;;;4.60;98.20;;;;;;5056655;28;20477;-73
2023/03/07 00:49:43;;;;;;;1.60;1.37;;;4.60;98.20;;;;;;5058939;28;20493;-73
2023/03/07 00:52:10;;;;;;;1.60;1.40;;;4.70;98.20;;;;;;5054080;28;20551;-74
2023/03/07 00:54:37;;;;;;;1.50;1.30;;;4.60;98.20;;;;;;5066420;28;20477;-73
2023/03/07 00:57:04;;;;;;;1.60;1.50;;;4.60;98.20;;;;;;5056613;28;21104;-73
2023/03/07 00:59:31;;;;;;;1.60;1.40;;;4.60;98.20;;;;;;5065610;28;20641;-76
2023/03/07 01:01:57;;;;;;;1.60;1.40;;;4.60;98.20;;;;;;5061088;28;20484;-76
2023/03/07 01:04:26;;;;;;;1.57;1.30;;;4.60;98.20;;;;;;5070094;28;20480;-75
2023/03/07 01:06:54;;;;;;;1.57;1.30;;;4.60;98.20;;;;;;5059246;28;20700;-77
2023/03/07 01:09:22;;;;;;;1.57;1.40;;;4.60;98.20;;;;;;5069582;28;20464;-75
2023/03/07 01:11:49;;;;;;;1.60;1.50;;;4.60;98.20;;;;;;5064120;28;20915;-78
2023/03/07 01:14:18;;;;;;;1.60;1.30;;;4.60;98.20;;;;;;5068397;28;20539;-74
2023/03/07 01:16:44;;;;;;;1.60;1.40;;;4.70;98.20;;;;;;5056016;28;20485;-75
2023/03/07 01:19:12;;;;;;;1.57;1.40;;;4.70;98.20;;;;;;5067042;28;20457;-74
2023/03/07 01:21:43;;;;;;;1.50;1.30;;;4.70;98.20;;;;;;5056857;28;20858;-74
2023/03/07 01:24:12;;;;;;;1.60;1.30;;;4.70;98.20;;;;;;5061946;28;20508;-75
2023/03/07 01:26:39;;;;;;;1.53;1.30;;;4.70;98.20;;;;;;5059073;28;20567;-74
2023/03/07 01:29:07;;;;;;;1.60;1.40;;;4.70;98.20;;;;;;5066582;28;20465;-75
2023/03/07 01:31:33;;;;;;;1.60;1.30;;;4.70;98.20;;;;;;5058860;28;20503;-76
2023/03/07 01:34:01;;;;;;;1.70;1.60;;;4.70;98.20;;;;;;5066005;28;20482;-74
2023/03/07 01:36:29;;;;;;;1.53;1.30;;;4.70;98.20;;;;;;5058155;28;20476;-75
2023/03/07 01:39:01;;;;;;;1.67;1.57;;;4.70;98.20;;;;;;5069981;28;20459;-76
2023/03/07 01:41:31;;;;;;;1.60;1.30;;;4.70;98.20;;;;;;5058605;28;20476;-75
2023/03/07 01:43:57;;;;;;;1.57;1.30;;;4.80;98.20;;;;;;5066185;28;20589;-75
2023/03/07 01:46:43;;;;;;;1.57;1.30;;;4.80;98.20;;;;;;5054746;28;20481;-76
2023/03/07 01:49:16;;;;;;;1.53;1.30;;;4.70;98.20;;;;;;5061846;28;20457;-76
2023/03/07 01:51:47;;;;;;;1.60;1.20;;;4.70;98.20;;;;;;5058560;28;20511;-75
2023/03/07 01:54:18;;;;;;;1.50;1.30;;;4.80;98.20;;;;;;5066688;28;20477;-76
2023/03/07 01:56:47;;;;;;;1.60;1.30;;;4.80;98.20;;;;;;5061346;28;20961;-74
2023/03/07 01:59:20;;;;;;;1.60;1.30;;;4.80;98.20;;;;;;5067024;28;20929;-75
2023/03/07 02:01:48;;;;;;;1.60;1.30;;;4.80;98.20;;;;;;5057123;28;20852;-76
2023/03/07 02:04:19;;;;;;;1.50;1.30;;;4.80;98.20;;;;;;5065926;28;20481;-75
2023/03/07 02:06:47;;;;;;;1.60;1.27;;;4.80;98.20;;;;;;5058655;28;20481;-75
2023/03/07 02:09:21;;;;;;;1.60;1.30;;;4.80;98.20;;;;;;5066771;28;20464;-76
2023/03/07 02:11:49;;;;;;;1.60;1.30;;;4.80;98.20;;;;;;5051209;28;20485;-75
2023/03/07 02:14:16;;;;;;;1.60;1.43;;;4.80;98.20;;;;;;5067023;28;20477;-76
2023/03/07 02:16:43;;;;;;;1.57;1.30;;;4.70;98.20;;;;;;5055349;28;20497;-75
2023/03/07 02:19:25;;;;;;;1.53;1.30;;;4.70;98.20;;;;;;5053484;28;20473;-74
2023/03/07 02:21:58;;;;;;;1.60;1.30;;;4.70;98.20;;;;;;5046944;28;20485;-74
2023/03/07 02:24:33;;;;;;;1.57;1.30;;;4.70;98.20;;;;;;5047614;28;20490;-73
2023/03/07 02:27:01;;;;;;;1.60;1.30;;;4.70;98.20;;;;;;5043749;28;20986;-74
2023/03/07 02:29:28;;;;;;;1.60;1.30;;;4.80;98.20;;;;;;5048394;28;20528;-73
2023/03/07 02:31:55;;;;;;;1.60;1.50;;;4.70;98.20;;;;;;5043736;28;20489;-74
2023/03/07 02:34:24;;;;;;;1.67;1.57;;;4.70;98.20;;;;;;5047726;28;20478;-73
2023/03/07 02:36:57;;;;;;;1.60;1.30;;;4.70;98.20;;;;;;5042701;28;20504;-74
2023/03/07 02:39:28;;;;;;;1.57;1.30;;;4.70;98.20;;;;;;5051506;28;20967;-74
2023/03/07 02:41:56;;;;;;;1.60;1.40;;;4.80;98.20;;;;;;5042761;28;20478;-73
2023/03/07 02:44:24;;;;;;;1.57;1.30;;;4.80;98.20;;;;;;5054435;28;20478;-74
2023/03/07 02:46:51;;;;;;;1.60;1.37;;;4.80;98.20;;;;;;5049261;28;20476;-73
2023/03/07 02:49:18;;;;;;;1.60;1.30;;;4.80;98.20;;;;;;5054006;28;20458;-73
2023/03/07 02:51:45;;;;;;;1.57;1.40;;;4.80;98.20;;;;;;5050473;28;20485;-74
2023/03/07 02:54:12;;;;;;;2.70;2.50;;;4.80;98.20;;;;;;5070210;28;20853;-73
2023/03/07 02:56:39;;;;;;;1.60;1.50;;;4.80;98.20;;;;;;5047311;28;20478;-73
2023/03/07 02:59:07;;;;;;;1.50;1.30;;;4.80;98.20;;;;;;5060427;28;20465;-73
2023/03/07 03:01:35;;;;;;;1.50;1.30;;;4.80;98.20;;;;;;5050821;28;20536;-73
2023/03/07 03:04:02;;;;;;;1.60;1.50;;;4.80;98.20;;;;;;5065062;28;20477;-73
2023/03/07 03:06:28;;;;;;;1.60;1.40;;;4.80;98.20;;;;;;5043998;28;21020;-73
2023/03/07 03:08:55;;;;;;;1.60;1.40;;;4.80;98.20;;;;;;5059961;28;20480;-74
2023/03/07 03:11:22;;;;;;;1.57;1.30;;;4.80;98.20;;;;;;5044546;28;21021;-73
2023/03/07 03:13:49;;;;;;;1.57;1.33;;;4.80;98.20;;;;;;5054689;28;20495;-73
2023/03/07 03:16:17;;;;;;;1.60;1.40;;;4.80;98.20;;;;;;5046525;28;20481;-74
2023/03/07 03:18:45;;;;;;;1.50;1.30;;;4.90;98.20;;;;;;5041632;28;20481;-73
2023/03/07 03:21:13;;;;;;;1.57;1.30;;;4.90;98.20;;;;;;5046539;28;20481;-73
2023/03/07 03:23:40;;;;;;;1.60;1.40;;;4.90;98.20;;;;;;5060011;28;20495;-72
2023/03/07 03:26:10;;;;;;;1.60;1.30;;;4.90;98.20;;;;;;5040381;28;20480;-73
2023/03/07 03:28:37;;;;;;;1.60;1.30;;;4.90;98.20;;;;;;5050232;28;20836;-73
2023/03/07 03:31:06;;;;;;;1.57;1.30;;;4.90;98.20;;;;;;5051684;28;20496;-73
2023/03/07 03:33:33;;;;;;;1.53;1.30;;;4.90;98.20;;;;;;5065404;28;20579;-73
2023/03/07 03:36:07;;;;;;;1.60;1.50;;;4.90;98.20;;;;;;5041725;28;20453;-73
2023/03/07 03:38:34;;;;;;;1.57;1.30;;;4.90;98.20;;;;;;5067612;28;20515;-73
2023/03/07 03:41:04;;;;;;;1.60;1.50;;;4.90;98.20;;;;;;5041201;28;20485;-73
2023/03/07 03:43:31;;;;;;;1.57;1.30;;;4.90;98.20;;;;;;5062039;28;20485;-72
2023/03/07 03:45:58;;;;;;;1.60;1.50;;;4.90;98.20;;;;;;5036797;28;20828;-73
2023/03/07 03:48:25;;;;;;;1.53;1.30;;;4.90;98.20;;;;;;5038520;28;20928;-73
2023/03/07 03:51:01;;;;;;;1.57;1.30;;;4.90;98.20;;;;;;5050968;28;20482;-73
2023/03/07 03:53:29;;;;;;;1.60;1.30;;;4.90;98.20;;;;;;5049465;28;20482;-73
2023/03/07 03:56:05;;;;;;;1.60;1.30;;;4.90;98.20;;;;;;5035122;28;20466;-73
2023/03/07 03:58:33;;;;;;;1.57;1.30;;;4.90;98.20;;;;;;5036969;28;20466;-73
2023/03/07 04:01:01;;;;;;;1.53;1.30;;;4.90;98.20;;;;;;5044711;28;20899;-73
2023/03/07 04:03:28;;;;;;;1.53;1.30;;;4.90;98.20;;;;;;5038819;28;20552;-73
2023/03/07 04:05:59;;;;;;;1.50;1.20;;;4.80;98.20;;;;;;5035422;28;20461;-73
2023/03/07 04:08:28;;;;;;;1.60;1.43;;;4.80;98.20;;;;;;5039508;28;20470;-73
2023/03/07 04:10:54;;;;;;;1.60;1.47;;;4.80;98.20;;;;;;5043948;28;20485;-73
2023/03/07 04:13:21;;;;;;;1.57;1.33;;;4.80;98.20;;;;;;5059901;28;21018;-73
2023/03/07 04:15:48;;;;;;;1.50;1.37;;;4.80;98.20;;;;;;5052220;28;20641;-73
2023/03/07 04:18:15;;;;;;;1.60;1.40;;;4.80;98.20;;;;;;5046696;28;20983;-73
2023/03/07 04:20:43;;;;;;;1.70;1.60;;;4.70;98.20;;;;;;5054701;28;20462;-73
2023/03/07 04:23:13;;;;;;;1.60;1.30;;;4.70;98.20;;;;;;5048891;28;20530;-72
2023/03/07 04:25:47;;;;;;;1.57;1.30;;;4.70;98.20;;;;;;5055705;28;20470;-73
2023/03/07 04:28:14;;;;;;;1.80;1.70;;;4.70;98.20;;;;;;5025592;28;20762;-73
2023/03/07 04:30:40;;;;;;;1.57;1.30;;;4.70;98.20;;;;;;5060205;28;20473;-72
2023/03/07 04:33:07;;;;;;;1.57;1.20;;;4.70;98.20;;;;;;5041629;28;20990;-73
2023/03/07 04:35:34;;;;;;;1.60;1.40;;;4.70;98.20;;;;;;5057580;28;20984;-72
2023/03/07 04:38:01;;;;;;;2.70;2.50;;;4.70;98.20;;;;;;5039863;28;20508;-73
2023/03/07 04:40:27;;;;;;;1.57;1.33;;;4.70;98.20;;;;;;5048684;28;20461;-73
2023/03/07 04:45:25;;;;;;;1.57;1.30;;;4.70;98.20;;;;;;5027953;23;20922;-72
2023/03/07 04:47:52;;;;;;;1.50;1.30;;;4.70;98.20;;;;;;5009111;28;21006;-72
2023/03/07 04:50:19;;;;;;;1.60;1.30;;;4.70;98.20;;;;;;5023623;28;20469;-72
2023/03/07 04:52:46;;;;;;;1.53;1.30;;;4.70;98.20;;;;;;5002788;28;20479;-72
2023/03/07 04:55:13;;;;;;;1.57;1.30;;;4.70;98.20;;;;;;5022604;28;21022;-72
2023/03/07 04:57:40;;;;;;;1.60;1.40;;;4.70;98.20;;;;;;5010435;28;20557;-74
2023/03/07 05:00:09;;;;;;;1.50;1.30;;;4.70;98.20;;;;;;5019137;28;20479;-72
2023/03/07 05:02:37;;;;;;;1.53;1.30;;;4.70;98.20;;;;;;4995430;28;20491;-72
2023/03/07 05:05:05;;;;;;;1.60;1.40;;;4.60;98.20;;;;;;5016086;28;20960;-72
2023/03/07 05:07:32;;;;;;;1.53;1.30;;;4.70;98.20;;;;;;4999580;28;20996;-73
2023/03/07 05:09:59;;;;;;;1.60;1.40;;;4.70;98.20;;;;;;5019900;28;20837;-73
2023/03/07 05:12:26;;;;;;;1.57;1.30;;;4.70;98.20;;;;;;5014970;28;20479;-72
2023/03/07 05:14:52;;;;;;;1.57;1.30;;;4.70;98.20;;;;;;5020350;28;20501;-73
2023/03/07 05:17:20;;;;;;;1.60;1.30;;;4.60;98.20;;;;;;5012762;28;20479;-72
2023/03/07 05:19:48;;;;;;;1.60;1.30;;;4.60;98.20;;;;;;5024690;28;20521;-72
2023/03/07 05:22:18;;;;;;;1.60;1.30;;;4.70;98.20;;;;;;5015019;28;20479;-72
2023/03/07 05:24:45;;;;;;;1.60;1.40;;;4.60;98.20;;;;;;5019906;28;20506;-72
2023/03/07 05:27:12;;;;;;;1.57;1.30;;;4.60;98.20;;;;;;5011378;28;20530;-72
2023/03/07 05:29:39;;;;;;;1.57;1.30;;;4.60;98.20;;;;;;5022293;28;20495;-72
2023/03/07 05:32:06;;;;;;;1.60;1.30;;;4.60;98.20;;;;;;5008670;28;21162;-73
2023/03/07 05:34:33;;;;;;;1.57;1.40;;;4.60;98.20;;;;;;5020893;28;20511;-74
2023/03/07 05:37:02;;;;;;;1.60;1.50;;;4.60;98.20;;;;;;5006831;28;21151;-72
2023/03/07 05:39:29;;;;;;;1.60;1.30;;;4.60;98.20;;;;;;5018351;28;20459;-72
2023/03/07 05:41:55;;;;;;;1.57;1.30;;;4.60;98.20;;;;;;5011584;28;20470;-72
2023/03/07 05:44:22;;;;;;;1.60;1.30;;;4.60;98.20;;;;;;5022251;28;20491;-72
2023/03/07 05:46:49;;;;;;;1.60;1.30;;;4.60;98.20;;;;;;5011822;28;20855;-73
2023/03/07 05:49:16;;;;;;;1.60;1.30;;;4.60;98.20;;;;;;5023307;28;20459;-73
2023/03/07 05:51:42;;;;;;;1.60;1.30;;;4.60;98.20;;;;;;5010081;28;20554;-74
2023/03/07 05:54:11;;;;;;;1.53;1.30;;;4.60;98.20;;;;;;5020282;28;20476;-73
2023/03/07 05:56:37;;;;;;;1.60;1.30;;;4.60;98.20;;;;;;5004395;28;21566;-74
2023/03/07 05:59:06;;;;;;;1.57;1.37;;;4.60;98.20;;;;;;5012041;28;20468;-73
2023/03/07 06:01:33;;;;;;;1.60;1.40;;;4.60;98.20;;;;;;5012142;28;20476;-73
2023/03/07 06:04:00;;;;;;;1.60;1.30;;;4.60;98.20;;;;;;5020519;28;20773;-73
2023/03/07 06:06:26;;;;;;;1.60;1.40;;;4.60;98.20;;;;;;5013322;28;20471;-73
2023/03/07 06:08:54;;;;;;;1.60;1.37;;;4.60;98.20;;;;;;5021555;28;20753;-73
2023/03/07 06:11:22;;;;;;;3.77;2.33;;;4.60;98.20;;;;;;5010916;28;20483;-73
2023/03/07 06:13:49;;;;;;;1.60;1.40;;;4.60;98.20;;;;;;5020684;28;20494;-73
2023/03/07 06:16:16;;;;;;;1.57;1.30;;;4.60;98.20;;;;;;5015024;28;20489;-74
2023/03/07 06:18:42;;;;;;;1.60;1.30;;;4.60;98.20;;;;;;5029386;28;20860;-74
2023/03/07 06:21:13;;;;;;;1.50;1.30;;;4.60;98.20;;;;;;5016698;28;20948;-74
2023/03/07 06:23:39;;;;;;;1.57;1.30;;;4.60;98.20;;;;;;5025404;28;20475;-74
2023/03/07 06:26:07;;;;;;;1.60;1.30;;;4.60;98.20;;;;;;5014663;28;20838;-74
2023/03/07 06:28:35;;;;;;;1.60;1.30;;;4.60;98.20;;;;;;5026515;28;20464;-74
2023/03/07 06:31:09;;;;;;;1.60;1.43;;;4.60;98.20;;;;;;5015666;28;20900;-73
2023/03/07 06:33:36;;;;;;;1.53;1.30;;;4.60;98.20;;;;;;5025000;28;20573;-75
2023/03/07 06:36:10;;;;;;;1.53;1.30;;;4.60;98.20;;;;;;5017676;28;20458;-73
2023/03/07 06:38:37;;;;;;;1.50;1.30;;;4.70;98.20;;;;;;5019655;28;20463;-73
2023/03/07 06:41:04;;;;;;;1.60;1.50;;;4.70;98.20;;;;;;5000991;28;20478;-74
2023/03/07 06:43:31;;;;;;;1.60;1.30;;;4.70;98.20;;;;;;5012395;28;20587;-73
2023/03/07 06:46:00;;;;;;;1.60;1.30;;;4.70;98.20;;;;;;5001726;28;20482;-74
2023/03/07 06:48:27;;;;;;;1.60;1.40;;;4.70;98.20;;;;;;5070510;23;20863;-77
2023/03/07 06:50:53;;;;;;;1.60;1.37;;;4.70;98.20;;;;;;5058198;28;20880;-77
2023/03/07 06:53:20;;;;;;;1.60;1.30;;;4.70;98.20;;;;;;5063119;28;20485;-76
2023/03/07 06:55:49;;;;;;;1.53;1.30;;;4.70;98.20;;;;;;5071719;28;20458;-77
2023/03/07 06:58:16;;;;;;;4.13;3.40;;;4.70;98.20;;;;;;5053959;28;20477;-76
2023/03/07 07:00:43;;;;;;;1.83;1.73;;;4.70;98.20;;;;;;5073531;28;20603;-78
2023/03/07 07:03:13;;;;;;;1.60;1.40;;;4.80;98.20;;;;;;5065768;28;20469;-76
2023/03/07 07:05:40;;;;;;;1.57;1.30;;;4.80;98.20;;;;;;5075185;28;20907;-78
2023/03/07 07:08:07;;;;;;;1.60;1.30;;;4.80;98.20;;;;;;5067927;28;20477;-77
2023/03/07 07:10:33;;;;;;;1.60;1.40;;;4.80;98.20;;;;;;5073994;28;20839;-75
2023/03/07 07:13:00;;;;;;;1.53;1.20;;;4.80;98.20;;;;;;5062116;28;20484;-77
2023/03/07 07:15:27;;;;;;;1.60;1.30;;;4.80;98.20;;;;;;5068994;28;20462;-76
2023/03/07 07:17:54;;;;;;;1.60;1.30;;;4.90;98.20;;;;;;5059946;28;20493;-77
2023/03/07 07:20:22;;;;;;;1.60;1.40;;;4.90;98.20;;;;;;5067124;28;20465;-76
2023/03/07 07:22:49;;;;;;;1.60;1.30;;;4.90;98.20;;;;;;5057305;28;20485;-76
2023/03/07 07:25:16;;;;;;;1.70;1.60;;;4.90;98.20;;;;;;5065708;28;20553;-76
2023/03/07 07:27:43;;;;;;;1.60;1.30;;;4.90;98.20;;;;;;5053939;28;20493;-77
2023/03/07 07:30:11;;;;;;;1.70;1.60;;;4.90;98.20;;;;;;5060003;28;20468;-77
2023/03/07 07:32:38;;;;;;;1.60;1.40;;;4.90;98.20;;;;;;5061669;28;20535;-76
2023/03/07 07:35:05;;;;;;;1.57;1.30;;;4.90;98.20;;;;;;5067088;28;20473;-77
2023/03/07 07:37:33;;;;;;;1.60;1.50;;;5.00;98.20;;;;;;5060290;28;20538;-77
2023/03/07 07:40:00;;;;;;;1.60;1.30;;;5.00;98.20;;;;;;5070112;28;20541;-77
2023/03/07 07:42:27;;;;;;;1.60;1.30;;;5.00;98.20;;;;;;5064893;28;20481;-77
2023/03/07 07:44:53;;;;;;;1.60;1.40;;;5.00;98.20;;;;;;5070782;28;20461;-77
2023/03/07 07:47:20;;;;;;;6.83;6.37;;;5.00;98.20;;;;;;5067350;28;20570;-78
2023/03/07 07:49:47;;;;;;;1.60;1.33;;;5.00;98.20;;;;;;5062985;28;20458;-77
2023/03/07 07:52:14;;;;;;;1.60;1.30;;;5.00;98.20;;;;;;5061895;28;20469;-77
2023/03/07 07:54:42;;;;;;;1.60;1.50;;;5.10;98.20;;;;;;5069588;28;20457;-77
2023/03/07 07:57:08;;;;;;;1.70;1.57;;;5.10;98.20;;;;;;5065292;28;21016;-77
2023/03/07 07:59:35;;;;;;;1.50;1.30;;;5.10;98.20;;;;;;5073632;28;20477;-78
2023/03/07 08:02:02;;;;;;;1.60;1.50;;;5.10;98.20;;;;;;5065888;28;21007;-77
2023/03/07 08:04:29;;;;;;;1.60;1.40;;;5.10;98.20;;;;;;5073945;28;20889;-77
2023/03/07 08:06:56;;;;;;;1.50;1.27;;;5.20;98.20;;;;;;5065265;28;20498;-78
2023/03/07 08:09:22;;;;;;;1.60;1.30;;;5.10;98.20;;;;;;5073196;28;20953;-78
2023/03/07 08:11:51;;;;;;;1.57;1.30;;;5.10;98.20;;;;;;5065647;28;20760;-77
2023/03/07 08:14:17;;;;;;;2.13;1.93;;;5.20;98.20;;;;;;5072783;28;20843;-79
2023/03/07 08:16:44;;;;;;;1.60;1.40;;;5.10;98.20;;;;;;5069236;28;20488;-76
2023/03/07 08:19:11;;;;;;;1.60;1.50;;;5.20;98.20;;;;;;5073960;28;20468;-77
2023/03/07 08:21:38;;;;;;;1.60;1.20;;;5.20;98.20;;;;;;5061190;28;20566;-75
2023/03/07 08:24:05;;;;;;;1.60;1.30;;;5.20;98.20;;;;;;5065668;28;20845;-75
2023/03/07 08:26:31;;;;;;;1.60;1.40;;;5.20;98.20;;;;;;5059839;28;20502;-78
2023/03/07 08:28:59;;;;;;;1.53;1.30;;;5.20;98.20;;;;;;5067292;28;20950;-74
2023/03/07 08:31:26;;;;;;;1.60;1.30;;;5.20;98.20;;;;;;5057970;28;20884;-74
2023/03/07 08:33:53;;;;;;;1.57;1.30;;;5.20;98.20;;;;;;5065686;28;20481;-75
2023/03/07 08:36:20;;;;;;;1.57;1.30;;;5.20;98.20;;;;;;5052987;28;20480;-75
2023/03/07 08:38:50;;;;;;;1.57;1.30;;;5.20;98.20;;;;;;5061568;28;20490;-75
2023/03/07 08:41:17;;;;;;;1.57;1.30;;;5.20;98.20;;;;;;5043858;28;20504;-75
2023/03/07 08:43:44;;;;;;;1.57;1.30;;;5.20;98.20;;;;;;5061558;28;20474;-75
2023/03/07 08:46:12;;;;;;;1.57;1.30;;;5.30;98.20;;;;;;5052914;28;20492;-75
2023/03/07 08:48:39;;;;;;;1.60;1.30;;;5.30;98.20;;;;;;5066459;28;20485;-75
2023/03/07 08:51:08;;;;;;;1.57;1.30;;;5.30;98.20;;;;;;5057776;28;20527;-74
2023/03/07 08:53:35;;;;;;;1.50;1.20;;;5.30;98.20;;;;;;5066874;28;20473;-75
2023/03/07 08:56:06;;;;;;;1.53;1.20;;;5.40;98.20;;;;;;5055172;28;20835;-75
2023/03/07 08:58:32;;;;;;;2.03;1.83;;;5.40;98.20;;;;;;5071288;28;20484;-75
2023/03/07 09:00:59;;;;;;;1.57;1.30;;;5.40;98.20;;;;;;5054497;28;20967;-77
2023/03/07 09:03:27;;;;;;;1.53;1.30;;;5.50;98.20;;;;;;5065142;28;20457;-75
2023/03/07 09:05:54;;;;;;;2.47;2.27;;;5.50;98.20;;;;;;5052806;28;20457;-75
2023/03/07 09:08:21;;;;;;;1.60;1.30;;;5.50;98.20;;;;;;5068483;28;20473;-75
2023/03/07 09:10:48;;;;;;;1.60;1.30;;;5.50;98.20;;;;;;5060430;28;20510;-76
2023/03/07 09:13:15;;;;;;;3.30;2.13;;;5.50;98.20;;;;;;5064787;28;20493;-74
2023/03/07 09:15:42;;;;;;;1.53;1.30;;;5.50;98.20;;;;;;5064069;28;20465;-75
2023/03/07 09:18:09;;;;;;;1.57;1.33;;;5.50;98.20;;;;;;5049740;28;20501;-75
2023/03/07 09:20:38;;;;;;;1.60;1.30;;;5.50;98.20;;;;;;5060117;28;20465;-75
2023/03/07 09:23:05;;;;;;;1.60;1.30;;;5.50;98.20;;;;;;5051422;28;20473;-76
2023/03/07 09:25:32;;;;;;;1.60;1.30;;;5.60;98.20;;;;;;5067260;28;20477;-77
2023/03/07 09:27:59;;;;;;;1.80;1.70;;;5.60;98.20;;;;;;5061166;28;20582;-77
2023/03/07 09:30:27;;;;;;;1.60;1.30;;;5.70;98.20;;;;;;5064862;28;20482;-77
2023/03/07 09:32:54;;;;;;;1.53;1.30;;;5.70;98.20;;;;;;5054771;28;20566;-78
2023/03/07 09:35:21;;;;;;;1.50;1.20;;;5.80;98.20;;;;;;5066888;28;20462;-78
2023/03/07 09:37:50;;;;;;;1.53;1.20;;;5.90;98.20;;;;;;5064615;28;20495;-77
2023/03/07 09:40:19;;;;;;;1.60;1.30;;;5.90;98.20;;;;;;5056968;28;20463;-75
2023/03/07 09:42:54;;;;;;;1.60;1.30;;;5.90;98.20;;;;;;5056817;28;20879;-76
2023/03/07 09:45:31;;;;;;;1.60;1.20;;;5.90;98.20;;;;;;5051828;28;20531;-76
2023/03/07 09:48:31;;;;;;;1.60;1.30;;;6.00;98.20;;;;;;5058514;28;20524;-78
2023/03/07 09:51:01;;;;;;;1.60;1.30;;;6.00;98.20;;;;;;5050076;28;20493;-77
2023/03/07 09:53:39;;;;;;;1.60;1.30;;;6.00;98.20;;;;;;5077374;28;20484;-77
2023/03/07 09:56:11;;;;;;;1.70;1.57;;;6.00;98.20;;;;;;5069573;28;20525;-78
2023/03/07 09:58:43;;;;;;;1.60;1.30;;;6.00;98.20;;;;;;5066790;28;20705;-79
2023/03/07 10:01:12;;;;;;;1.60;1.20;;;6.10;98.20;;;;;;5057397;28;20621;-77
2023/03/07 10:03:46;;;;;;;1.70;1.60;;;6.10;98.20;;;;;;5073207;28;20457;-78
2023/03/07 10:06:18;;;;;;;1.60;1.30;;;6.10;98.20;;;;;;5053234;28;20473;-77
2023/03/07 10:08:47;;;;;;;1.60;1.40;;;6.20;98.20;;;;;;5072126;28;20481;-77
2023/03/07 10:11:29;;;;;;;1.60;1.40;;;6.20;98.20;;;;;;5061080;28;20484;-78
2023/03/07 10:14:11;;;;;;;1.57;1.30;;;6.10;98.20;;;;;;5062440;28;20516;-76
2023/03/07 10:16:49;;;;;;;1.60;1.33;;;6.10;98.20;;;;;;5041469;28;20489;-78
2023/03/07 10:19:25;;;;;;;1.57;1.27;;;6.10;98.20;;;;;;5063830;28;20856;-82
2023/03/07 10:22:03;;;;;;;1.53;1.20;;;6.00;98.20;;;;;;5054289;28;20543;-74
2023/03/07 10:24:44;;;;;;;1.53;1.20;;;6.00;98.20;;;;;;5067127;28;20535;-77
2023/03/07 10:27:13;;;;;;;1.60;1.30;;;6.00;98.20;;;;;;5059724;28;20517;-77
2023/03/07 10:29:46;;;;;;;2.13;1.93;;;6.00;98.20;;;;;;5058601;28;20833;-77
2023/03/07 10:32:29;;;;;;;1.60;1.30;;;6.00;98.20;;;;;;5052731;28;20540;-77
2023/03/07 10:35:01;;;;;;;1.60;1.30;;;6.00;98.20;;;;;;5058275;28;20829;-77
2023/03/07 10:37:40;;;;;;;1.53;1.20;;;6.00;98.20;;;;;;5059844;28;20837;-77
2023/03/07 10:40:17;;;;;;;1.53;1.20;;;5.90;98.20;;;;;;5065821;28;20476;-77
2023/03/07 10:42:44;;;;;;;3.00;2.80;;;5.80;98.20;;;;;;5059934;28;20472;-77
2023/03/07 10:45:13;;;;;;;1.53;1.30;;;5.60;98.20;;;;;;5067006;28;21143;-78
2023/03/07 10:47:40;;;;;;;1.60;1.30;;;5.40;98.20;;;;;;5049186;28;20477;-79
2023/03/07 10:50:27;;;;;;;1.53;1.20;;;5.30;98.20;;;;;;5076430;28;20450;-78
2023/03/07 10:52:57;;;;;;;1.60;1.30;;;5.20;98.20;;;;;;5068136;28;21169;-77
2023/03/07 10:55:37;;;;;;;1.60;1.40;;;5.10;98.20;;;;;;5057753;28;20457;-74
2023/03/07 10:58:21;;;;;;;1.60;1.40;;;5.10;98.20;;;;;;5062188;28;20489;-77
2023/03/07 11:01:03;;;;;;;1.53;1.20;;;5.10;98.20;;;;;;5058762;28;20464;-75
2023/03/07 11:03:33;;;;;;;1.53;1.20;;;5.10;98.20;;;;;;5069471;28;20461;-76
2023/03/07 11:06:00;;;;;;;1.50;1.20;;;5.10;98.20;;;;;;5055463;28;20511;-73
2023/03/07 11:08:31;;;;;;;1.60;1.30;;;5.00;98.20;;;;;;5075675;28;20488;-78
2023/03/07 11:11:00;;;;;;;1.53;1.30;;;5.00;98.20;;;;;;5064698;28;20514;-76
2023/03/07 11:13:27;;;;;;;1.60;1.40;;;5.00;98.20;;;;;;5076249;28;20500;-77
2023/03/07 11:16:10;;;;;;;1.60;1.30;;;4.90;98.20;;;;;;5058349;28;20831;-78
2023/03/07 11:18:39;;;;;;;1.60;1.30;;;4.90;98.20;;;;;;5078192;28;20643;-77
2023/03/07 11:21:06;;;;;;;1.57;1.23;;;4.90;98.20;;;;;;5052323;28;20462;-76
2023/03/07 11:23:32;;;;;;;1.60;1.30;;;4.90;98.20;;;;;;5070206;28;20728;-75
2023/03/07 11:26:16;;;;;;;1.60;1.30;;;5.00;98.20;;;;;;5059518;28;20743;-79
2023/03/07 11:28:43;;;;;;;1.57;1.20;;;5.00;98.20;;;;;;5073515;28;20485;-77
2023/03/07 11:31:16;;;;;;;1.53;1.20;;;5.00;98.20;;;;;;5052591;28;21010;-77
2023/03/07 11:33:52;;;;;;;1.60;1.30;;;5.00;98.20;;;;;;5064490;28;20486;-77
2023/03/07 11:36:30;;;;;;;1.57;1.20;;;5.10;98.20;;;;;;5043617;28;20487;-76
2023/03/07 11:39:02;;;;;;;1.60;1.30;;;5.10;98.20;;;;;;5060552;28;20531;-76
2023/03/07 11:41:34;;;;;;;1.60;1.50;;;5.10;98.20;;;;;;5054124;28;20485;-76
2023/03/07 11:44:20;;;;;;;1.57;1.20;;;5.00;98.20;;;;;;5074309;28;20453;-77
2023/03/07 11:47:14;;;;;;;1.50;1.20;;;5.00;98.20;;;;;;5059666;28;20493;-77
2023/03/07 11:49:46;;;;;;;3.30;3.10;;;5.10;98.20;;;;;;5064817;28;20997;-77
2023/03/07 11:52:27;;;;;;;1.50;1.20;;;5.10;98.20;;;;;;5065637;28;20557;-78
2023/03/07 11:55:05;;;;;;;1.50;1.20;;;5.10;98.20;;;;;;5076262;28;20481;-78
2023/03/07 11:57:50;;;;;;;1.60;1.40;;;5.10;98.20;;;;;;5057986;28;20629;-77
2023/03/07 12:00:27;;;;;;;1.60;1.30;;;5.10;98.20;;;;;;5057334;28;20850;-76
2023/03/07 12:03:18;;;;;;;1.57;1.30;;;5.00;98.20;;;;;;5058022;28;20491;-76
2023/03/07 12:06:04;;;;;;;1.60;1.30;;;5.00;98.20;;;;;;5065732;28;20536;-78
2023/03/07 12:08:45;;;;;;;1.53;1.30;;;5.00;98.20;;;;;;5036486;28;20480;-77
2023/03/07 12:11:25;;;;;;;1.53;1.20;;;5.00;98.20;;;;;;5046154;28;20491;-76
2023/03/07 12:14:04;;;;;;;1.60;1.30;;;5.00;98.20;;;;;;5067945;28;20849;-75
2023/03/07 12:16:42;;;;;;;1.53;1.20;;;5.00;98.20;;;;;;5043267;28;20484;-77
2023/03/07 12:19:31;;;;;;;1.53;1.30;;;5.10;98.20;;;;;;5070877;28;20461;-75
2023/03/07 12:22:36;;;;;;;1.60;1.40;;;5.00;98.20;;;;;;5058832;28;20485;-78
2023/03/07 12:25:23;;;;;;;1.53;1.20;;;5.00;98.20;;;;;;5052658;28;20457;-78
2023/03/07 12:28:00;;;;;;;1.53;1.30;;;5.00;98.20;;;;;;5060307;28;20520;-78
2023/03/07 12:30:37;;;;;;;1.60;1.40;;;4.90;98.20;;;;;;5060160;28;20910;-78
2023/03/07 12:33:05;;;;;;;1.60;1.30;;;4.80;98.20;;;;;;5063198;28;20484;-79
2023/03/07 12:35:41;;;;;;;1.53;1.27;;;4.80;98.20;;;;;;5072288;28;20461;-78
2023/03/07 12:38:12;;;;;;;1.60;1.30;;;4.70;98.20;;;;;;5055103;28;20861;-76
2023/03/07 12:40:42;;;;;;;1.60;1.30;;;4.60;98.20;;;;;;5067535;28;20474;-77
2023/03/07 12:43:18;;;;;;;1.60;1.30;;;4.60;98.20;;;;;;5055897;28;20485;-76
2023/03/07 12:45:50;;;;;;;1.60;1.40;;;4.70;98.20;;;;;;5060618;28;20695;-77
2023/03/07 12:48:22;;;;;;;1.57;1.20;;;4.60;98.20;;;;;;5035177;23;20505;-77
2023/03/07 12:50:56;;;;;;;1.57;1.20;;;4.70;98.20;;;;;;5055286;28;20481;-76
2023/03/07 12:53:33;;;;;;;1.50;1.30;;;4.70;98.20;;;;;;5082819;28;20472;-78
2023/03/07 12:56:06;;;;;;;1.60;1.30;;;4.70;98.20;;;;;;5059775;28;20468;-76
2023/03/07 12:58:40;;;;;;;1.60;1.40;;;4.80;98.20;;;;;;5071463;28;20503;-77
2023/03/07 13:01:13;;;;;;;1.60;1.30;;;4.80;98.20;;;;;;5045723;28;20962;-76
2023/03/07 13:03:45;;;;;;;1.53;1.20;;;4.80;98.20;;;;;;5050646;28;20516;-77
2023/03/07 13:06:17;;;;;;;1.60;1.50;;;4.80;98.20;;;;;;5050407;28;21158;-76
2023/03/07 13:08:48;;;;;;;1.60;1.30;;;4.80;98.20;;;;;;5063938;28;20970;-77
2023/03/07 13:11:20;;;;;;;1.57;1.33;;;4.70;98.20;;;;;;5048061;28;20473;-76
2023/03/07 13:13:55;;;;;;;1.60;1.40;;;4.70;98.20;;;;;;5050466;28;20572;-76